sensor_id;sensor_type;location;lat;lon;timestamp;pressure;altitude;pressure_sealevel;temperature;humidity
11987;BME280;6053;51.382;6.768;2023-06-04T00:01:38;101681.97;;;16.68;42.31
11987;BME280;6053;51.382;6.768;2023-06-04T00:04:07;101671.19;;;16.72;44.44
11987;BME280;6053;51.382;6.768;2023-06-04T00:06:36;101674.69;;;16.79;41.91
11987;BME280;6053;51.382;6.768;2023-06-04T00:09:07;101675.97;;;16.60;45.32
11987;BME280;6053;51.382;6.768;2023-06-04T00:11:36;101674.84;;;16.44;45.39
11987;BME280;6053;51.382;6.768;2023-06-04T00:14:05;101672.25;;;16.54;44.16
11987;BME280;6053;51.382;6.768;2023-06-04T00:16:35;101673.28;;;17.27;45.16
11987;BME280;6053;51.382;6.768;2023-06-04T00:19:04;101676.75;;;17.01;45.61
11987;BME280;6053;51.382;6.768;2023-06-04T00:21:33;101678.00;;;16.07;46.02
11987;BME280;6053;51.382;6.768;2023-06-04T00:24:03;101672.88;;;16.73;40.59
11987;BME280;6053;51.382;6.768;2023-06-04T00:26:34;101666.16;;;17.75;43.86
11987;BME280;6053;51.382;6.768;2023-06-04T00:29:06;101671.34;;;17.28;44.43
11987;BME280;6053;51.382;6.768;2023-06-04T00:31:35;101671.09;;;16.67;42.05
11987;BME280;6053;51.382;6.768;2023-06-04T00:34:07;101671.69;;;16.98;42.82
11987;BME280;6053;51.382;6.768;2023-06-04T00:36:37;101673.47;;;18.42;41.76
11987;BME280;6053;51.382;6.768;2023-06-04T00:39:06;101672.03;;;18.40;41.55
11987;BME280;6053;51.382;6.768;2023-06-04T00:41:36;101672.09;;;17.79;42.39
11987;BME280;6053;51.382;6.768;2023-06-04T00:44:06;101676.84;;;18.00;42.51
11987;BME280;6053;51.382;6.768;2023-06-04T00:46:35;101674.34;;;17.43;41.92
11987;BME280;6053;51.382;6.768;2023-06-04T00:49:05;101674.53;;;17.19;40.52
11987;BME280;6053;51.382;6.768;2023-06-04T00:51:35;101672.41;;;17.43;42.49
11987;BME280;6053;51.382;6.768;2023-06-04T00:54:06;101671.66;;;16.52;44.22
11987;BME280;6053;51.382;6.768;2023-06-04T00:56:38;101676.06;;;16.08;45.06
11987;BME280;6053;51.382;6.768;2023-06-04T00:59:08;101666.53;;;16.32;46.69
11987;BME280;6053;51.382;6.768;2023-06-04T01:01:42;101673.00;;;15.33;45.21
11987;BME280;6053;51.382;6.768;2023-06-04T01:04:18;101674.19;;;15.61;44.83
11987;BME280;6053;51.382;6.768;2023-06-04T01:06:50;101672.25;;;15.15;45.59
11987;BME280;6053;51.382;6.768;2023-06-04T01:09:24;101671.81;;;16.05;45.44
11987;BME280;6053;51.382;6.768;2023-06-04T01:11:54;101674.53;;;14.94;47.96
11987;BME280;6053;51.382;6.768;2023-06-04T01:14:26;101669.81;;;15.18;48.92
11987;BME280;6053;51.382;6.768;2023-06-04T01:16:58;101666.50;;;16.44;47.86
11987;BME280;6053;51.382;6.768;2023-06-04T01:19:55;101681.56;;;15.91;48.29
11987;BME280;6053;51.382;6.768;2023-06-04T01:22:35;101677.19;;;17.65;45.31
11987;BME280;6053;51.382;6.768;2023-06-04T01:25:09;101680.31;;;16.39;47.83
11987;BME280;6053;51.382;6.768;2023-06-04T01:27:51;101676.56;;;16.62;47.10
11987;BME280;6053;51.382;6.768;2023-06-04T01:30:26;101677.94;;;15.78;48.43
11987;BME280;6053;51.382;6.768;2023-06-04T01:32:55;101678.06;;;15.60;48.82
11987;BME280;6053;51.382;6.768;2023-06-04T01:35:26;101676.97;;;15.85;49.85
11987;BME280;6053;51.382;6.768;2023-06-04T01:37:56;101678.41;;;15.87;48.97
11987;BME280;6053;51.382;6.768;2023-06-04T01:40:25;101667.16;;;15.82;49.67
11987;BME280;6053;51.382;6.768;2023-06-04T01:42:55;101681.84;;;16.18;50.46
11987;BME280;6053;51.382;6.768;2023-06-04T01:45:26;101677.94;;;15.43;52.28
11987;BME280;6053;51.382;6.768;2023-06-04T01:47:55;101669.28;;;16.89;48.96
11987;BME280;6053;51.382;6.768;2023-06-04T01:50:25;101671.84;;;17.08;47.96
11987;BME280;6053;51.382;6.768;2023-06-04T01:52:54;101676.75;;;16.26;50.18
11987;BME280;6053;51.382;6.768;2023-06-04T01:55:23;101674.47;;;16.98;47.71
11987;BME280;6053;51.382;6.768;2023-06-04T01:57:55;101666.22;;;17.58;47.04
11987;BME280;6053;51.382;6.768;2023-06-04T02:00:24;101668.16;;;15.41;52.00
11987;BME280;6053;51.382;6.768;2023-06-04T02:02:58;101668.59;;;16.37;50.49
11987;BME280;6053;51.382;6.768;2023-06-04T02:05:28;101665.13;;;15.77;53.32
11987;BME280;6053;51.382;6.768;2023-06-04T02:07:57;101673.00;;;16.21;52.12
11987;BME280;6053;51.382;6.768;2023-06-04T02:10:29;101673.84;;;16.95;50.28
11987;BME280;6053;51.382;6.768;2023-06-04T02:13:00;101674.22;;;15.49;52.81
11987;BME280;6053;51.382;6.768;2023-06-04T02:15:32;101675.78;;;15.69;53.18
11987;BME280;6053;51.382;6.768;2023-06-04T02:18:12;101681.38;;;16.09;53.31
11987;BME280;6053;51.382;6.768;2023-06-04T02:20:44;101677.22;;;15.71;52.04
11987;BME280;6053;51.382;6.768;2023-06-04T02:23:15;101670.19;;;15.69;53.83
11987;BME280;6053;51.382;6.768;2023-06-04T02:25:47;101677.22;;;15.71;54.84
11987;BME280;6053;51.382;6.768;2023-06-04T02:28:19;101676.97;;;15.38;55.17
11987;BME280;6053;51.382;6.768;2023-06-04T02:30:49;101680.59;;;15.38;56.76
11987;BME280;6053;51.382;6.768;2023-06-04T02:33:18;101681.06;;;15.94;54.18
11987;BME280;6053;51.382;6.768;2023-06-04T02:35:48;101685.75;;;16.05;53.20
11987;BME280;6053;51.382;6.768;2023-06-04T02:38:17;101684.19;;;15.97;53.29
11987;BME280;6053;51.382;6.768;2023-06-04T02:40:46;101675.91;;;15.74;53.47
11987;BME280;6053;51.382;6.768;2023-06-04T02:43:15;101693.66;;;15.61;53.98
11987;BME280;6053;51.382;6.768;2023-06-04T02:45:46;101690.38;;;14.64;56.82
11987;BME280;6053;51.382;6.768;2023-06-04T02:48:15;101685.25;;;14.91;56.35
11987;BME280;6053;51.382;6.768;2023-06-04T02:50:44;101690.25;;;15.83;55.45
11987;BME280;6053;51.382;6.768;2023-06-04T02:53:16;101679.38;;;15.34;56.66
11987;BME280;6053;51.382;6.768;2023-06-04T02:55:45;101678.69;;;15.74;54.50
11987;BME280;6053;51.382;6.768;2023-06-04T02:58:14;101679.09;;;14.28;59.25
11987;BME280;6053;51.382;6.768;2023-06-04T03:00:47;101684.13;;;14.20;60.36
11987;BME280;6053;51.382;6.768;2023-06-04T03:03:17;101684.06;;;14.98;57.97
11987;BME280;6053;51.382;6.768;2023-06-04T03:05:46;101686.94;;;14.92;58.46
11987;BME280;6053;51.382;6.768;2023-06-04T03:08:15;101683.72;;;14.34;59.80
11987;BME280;6053;51.382;6.768;2023-06-04T03:10:46;101686.88;;;14.56;60.19
11987;BME280;6053;51.382;6.768;2023-06-04T03:13:16;101692.81;;;15.61;58.22
11987;BME280;6053;51.382;6.768;2023-06-04T03:15:48;101695.06;;;15.05;58.30
11987;BME280;6053;51.382;6.768;2023-06-04T03:18:17;101690.78;;;15.56;57.67
11987;BME280;6053;51.382;6.768;2023-06-04T03:20:46;101688.19;;;14.35;61.31
11987;BME280;6053;51.382;6.768;2023-06-04T03:23:15;101683.38;;;13.94;64.85
11987;BME280;6053;51.382;6.768;2023-06-04T03:25:44;101691.63;;;14.19;62.56
11987;BME280;6053;51.382;6.768;2023-06-04T03:28:15;101684.69;;;13.55;65.03
11987;BME280;6053;51.382;6.768;2023-06-04T03:30:46;101687.50;;;14.70;62.06
11987;BME280;6053;51.382;6.768;2023-06-04T03:33:16;101681.03;;;16.06;56.74
11987;BME280;6053;51.382;6.768;2023-06-04T03:35:45;101680.38;;;14.63;60.64
11987;BME280;6053;51.382;6.768;2023-06-04T03:38:16;101683.50;;;15.78;57.96
11987;BME280;6053;51.382;6.768;2023-06-04T03:40:46;101684.25;;;16.55;55.79
11987;BME280;6053;51.382;6.768;2023-06-04T03:43:15;101698.19;;;16.71;54.19
11987;BME280;6053;51.382;6.768;2023-06-04T03:45:44;101692.53;;;16.95;53.85
11987;BME280;6053;51.382;6.768;2023-06-04T03:48:15;101698.69;;;14.33;61.09
11987;BME280;6053;51.382;6.768;2023-06-04T03:50:44;101692.69;;;15.55;59.92
11987;BME280;6053;51.382;6.768;2023-06-04T03:53:15;101700.56;;;15.70;57.81
11987;BME280;6053;51.382;6.768;2023-06-04T03:55:44;101698.00;;;15.45;58.63
11987;BME280;6053;51.382;6.768;2023-06-04T03:58:13;101693.28;;;14.38;62.24
11987;BME280;6053;51.382;6.768;2023-06-04T04:00:44;101688.22;;;15.43;59.21
11987;BME280;6053;51.382;6.768;2023-06-04T04:03:15;101690.50;;;15.93;56.88
11987;BME280;6053;51.382;6.768;2023-06-04T04:05:46;101687.59;;;15.88;56.53
11987;BME280;6053;51.382;6.768;2023-06-04T04:08:16;101678.44;;;15.17;61.04
11987;BME280;6053;51.382;6.768;2023-06-04T04:10:45;101679.63;;;14.55;61.82
11987;BME280;6053;51.382;6.768;2023-06-04T04:13:16;101682.47;;;14.91;61.76
11987;BME280;6053;51.382;6.768;2023-06-04T04:15:45;101687.50;;;15.71;59.59
11987;BME280;6053;51.382;6.768;2023-06-04T04:18:16;101691.59;;;15.92;57.73
11987;BME280;6053;51.382;6.768;2023-06-04T04:20:47;101689.31;;;15.30;59.13
11987;BME280;6053;51.382;6.768;2023-06-04T04:23:16;101686.41;;;14.71;62.15
11987;BME280;6053;51.382;6.768;2023-06-04T04:25:48;101696.44;;;14.42;63.07
11987;BME280;6053;51.382;6.768;2023-06-04T04:28:17;101690.78;;;15.32;61.45
11987;BME280;6053;51.382;6.768;2023-06-04T04:30:47;101671.59;;;13.80;66.85
11987;BME280;6053;51.382;6.768;2023-06-04T04:33:19;101685.19;;;14.67;64.94
11987;BME280;6053;51.382;6.768;2023-06-04T04:35:49;101690.19;;;14.77;61.79
11987;BME280;6053;51.382;6.768;2023-06-04T04:38:19;101686.50;;;15.06;60.17
11987;BME280;6053;51.382;6.768;2023-06-04T04:40:51;101693.41;;;15.51;58.68
11987;BME280;6053;51.382;6.768;2023-06-04T04:43:29;101687.84;;;15.51;59.81
11987;BME280;6053;51.382;6.768;2023-06-04T04:45:59;101690.44;;;16.73;54.41
11987;BME280;6053;51.382;6.768;2023-06-04T04:48:30;101685.94;;;17.74;52.38
11987;BME280;6053;51.382;6.768;2023-06-04T04:51:02;101688.41;;;17.14;52.39
11987;BME280;6053;51.382;6.768;2023-06-04T04:53:32;101692.91;;;17.88;50.41
11987;BME280;6053;51.382;6.768;2023-06-04T04:56:01;101698.28;;;17.22;53.06
11987;BME280;6053;51.382;6.768;2023-06-04T04:58:33;101697.09;;;18.83;47.52
11987;BME280;6053;51.382;6.768;2023-06-04T05:01:02;101697.84;;;18.74;48.74
11987;BME280;6053;51.382;6.768;2023-06-04T05:03:33;101696.88;;;18.63;47.89
11987;BME280;6053;51.382;6.768;2023-06-04T05:06:04;101700.91;;;18.50;48.24
11987;BME280;6053;51.382;6.768;2023-06-04T05:08:33;101697.78;;;18.96;47.05
11987;BME280;6053;51.382;6.768;2023-06-04T05:11:02;101701.63;;;18.63;46.86
11987;BME280;6053;51.382;6.768;2023-06-04T05:13:32;101703.38;;;18.69;46.22
11987;BME280;6053;51.382;6.768;2023-06-04T05:16:02;101708.03;;;18.36;47.33
11987;BME280;6053;51.382;6.768;2023-06-04T05:18:38;101702.38;;;18.09;49.29
11987;BME280;6053;51.382;6.768;2023-06-04T05:21:08;101702.97;;;18.60;47.86
11987;BME280;6053;51.382;6.768;2023-06-04T05:23:39;101699.28;;;17.16;49.31
11987;BME280;6053;51.382;6.768;2023-06-04T05:26:10;101699.53;;;17.48;49.13
11987;BME280;6053;51.382;6.768;2023-06-04T05:28:39;101697.56;;;17.82;50.49
11987;BME280;6053;51.382;6.768;2023-06-04T05:31:11;101702.38;;;18.80;46.98
11987;BME280;6053;51.382;6.768;2023-06-04T05:33:42;101704.69;;;19.52;45.57
11987;BME280;6053;51.382;6.768;2023-06-04T05:36:12;101703.75;;;20.37;43.11
11987;BME280;6053;51.382;6.768;2023-06-04T05:38:41;101706.25;;;18.30;47.79
11987;BME280;6053;51.382;6.768;2023-06-04T05:41:11;101708.03;;;19.54;44.08
11987;BME280;6053;51.382;6.768;2023-06-04T05:43:42;101709.53;;;19.25;45.05
11987;BME280;6053;51.382;6.768;2023-06-04T05:46:12;101710.00;;;18.63;46.21
11987;BME280;6053;51.382;6.768;2023-06-04T05:48:42;101710.38;;;18.71;46.19
11987;BME280;6053;51.382;6.768;2023-06-04T05:51:13;101708.13;;;18.95;46.19
11987;BME280;6053;51.382;6.768;2023-06-04T05:53:42;101708.88;;;18.64;44.85
11987;BME280;6053;51.382;6.768;2023-06-04T05:56:13;101714.13;;;18.55;45.78
11987;BME280;6053;51.382;6.768;2023-06-04T05:58:42;101709.56;;;20.20;42.97
11987;BME280;6053;51.382;6.768;2023-06-04T06:01:11;101719.06;;;20.97;42.15
11987;BME280;6053;51.382;6.768;2023-06-04T06:03:42;101714.59;;;21.01;41.97
11987;BME280;6053;51.382;6.768;2023-06-04T06:06:11;101725.16;;;20.53;41.72
11987;BME280;6053;51.382;6.768;2023-06-04T06:08:41;101727.81;;;20.28;43.55
11987;BME280;6053;51.382;6.768;2023-06-04T06:11:10;101733.25;;;17.80;45.84
11987;BME280;6053;51.382;6.768;2023-06-04T06:13:41;101724.84;;;18.90;45.37
11987;BME280;6053;51.382;6.768;2023-06-04T06:16:12;101725.28;;;19.41;43.38
11987;BME280;6053;51.382;6.768;2023-06-04T06:18:42;101723.75;;;19.61;44.27
11987;BME280;6053;51.382;6.768;2023-06-04T06:21:12;101730.56;;;20.90;40.80
11987;BME280;6053;51.382;6.768;2023-06-04T06:23:41;101736.41;;;20.63;40.74
11987;BME280;6053;51.382;6.768;2023-06-04T06:26:12;101727.50;;;21.74;39.19
11987;BME280;6053;51.382;6.768;2023-06-04T06:28:42;101737.53;;;20.62;39.75
11987;BME280;6053;51.382;6.768;2023-06-04T06:31:11;101730.63;;;21.47;39.53
11987;BME280;6053;51.382;6.768;2023-06-04T06:33:42;101737.00;;;20.81;39.71
11987;BME280;6053;51.382;6.768;2023-06-04T06:36:12;101738.50;;;21.39;40.00
11987;BME280;6053;51.382;6.768;2023-06-04T06:38:46;101734.25;;;21.16;40.62
11987;BME280;6053;51.382;6.768;2023-06-04T06:41:19;101738.34;;;20.68;39.68
11987;BME280;6053;51.382;6.768;2023-06-04T06:43:51;101737.03;;;21.22;38.93
11987;BME280;6053;51.382;6.768;2023-06-04T06:46:20;101737.59;;;20.20;40.63
11987;BME280;6053;51.382;6.768;2023-06-04T06:48:52;101740.16;;;20.32;40.08
11987;BME280;6053;51.382;6.768;2023-06-04T06:51:21;101740.72;;;21.48;38.23
11987;BME280;6053;51.382;6.768;2023-06-04T06:53:51;101750.97;;;22.29;38.52
11987;BME280;6053;51.382;6.768;2023-06-04T06:56:20;101743.41;;;22.84;35.48
11987;BME280;6053;51.382;6.768;2023-06-04T06:58:49;101755.31;;;22.66;35.99
11987;BME280;6053;51.382;6.768;2023-06-04T07:01:19;101755.25;;;20.99;38.81
11987;BME280;6053;51.382;6.768;2023-06-04T07:03:48;101747.75;;;21.60;37.46
11987;BME280;6053;51.382;6.768;2023-06-04T07:06:21;101748.56;;;21.46;37.34
11987;BME280;6053;51.382;6.768;2023-06-04T07:08:50;101746.88;;;21.75;37.26
11987;BME280;6053;51.382;6.768;2023-06-04T07:11:21;101752.22;;;21.72;38.94
11987;BME280;6053;51.382;6.768;2023-06-04T07:13:50;101751.88;;;21.02;37.55
11987;BME280;6053;51.382;6.768;2023-06-04T07:16:19;101755.16;;;22.91;34.82
11987;BME280;6053;51.382;6.768;2023-06-04T07:18:48;101761.09;;;22.95;37.02
11987;BME280;6053;51.382;6.768;2023-06-04T07:21:17;101757.16;;;22.31;35.04
11987;BME280;6053;51.382;6.768;2023-06-04T07:23:48;101770.72;;;21.06;37.49
11987;BME280;6053;51.382;6.768;2023-06-04T07:26:18;101758.66;;;21.26;37.33
11987;BME280;6053;51.382;6.768;2023-06-04T07:28:47;101763.69;;;21.29;37.53
11987;BME280;6053;51.382;6.768;2023-06-04T07:31:16;101757.59;;;22.53;35.90
11987;BME280;6053;51.382;6.768;2023-06-04T07:33:45;101757.84;;;21.36;36.72
11987;BME280;6053;51.382;6.768;2023-06-04T07:36:15;101755.50;;;22.15;35.81
11987;BME280;6053;51.382;6.768;2023-06-04T07:38:44;101755.72;;;22.39;35.03
11987;BME280;6053;51.382;6.768;2023-06-04T07:41:14;101764.31;;;21.52;36.20
11987;BME280;6053;51.382;6.768;2023-06-04T07:43:43;101768.19;;;21.10;36.63
11987;BME280;6053;51.382;6.768;2023-06-04T07:46:12;101756.69;;;21.78;35.75
11987;BME280;6053;51.382;6.768;2023-06-04T07:48:40;101753.88;;;21.73;35.78
11987;BME280;6053;51.382;6.768;2023-06-04T07:51:09;101754.59;;;22.89;33.70
11987;BME280;6053;51.382;6.768;2023-06-04T07:53:38;101753.84;;;23.23;33.37
11987;BME280;6053;51.382;6.768;2023-06-04T07:56:07;101755.22;;;23.25;33.55
11987;BME280;6053;51.382;6.768;2023-06-04T07:58:37;101755.44;;;22.40;34.69
11987;BME280;6053;51.382;6.768;2023-06-04T08:01:06;101749.03;;;22.79;34.73
11987;BME280;6053;51.382;6.768;2023-06-04T08:03:35;101753.63;;;23.14;33.18
11987;BME280;6053;51.382;6.768;2023-06-04T08:06:04;101764.56;;;22.66;32.77
11987;BME280;6053;51.382;6.768;2023-06-04T08:08:33;101755.66;;;23.43;33.76
11987;BME280;6053;51.382;6.768;2023-06-04T08:11:02;101757.69;;;22.98;31.83
11987;BME280;6053;51.382;6.768;2023-06-04T08:13:31;101756.41;;;23.19;32.31
11987;BME280;6053;51.382;6.768;2023-06-04T08:16:01;101760.34;;;22.69;31.87
11987;BME280;6053;51.382;6.768;2023-06-04T08:18:29;101761.44;;;22.73;32.35
11987;BME280;6053;51.382;6.768;2023-06-04T08:20:58;101758.16;;;22.61;32.42
11987;BME280;6053;51.382;6.768;2023-06-04T08:23:26;101760.63;;;21.72;33.46
11987;BME280;6053;51.382;6.768;2023-06-04T08:25:55;101753.72;;;23.04;33.65
11987;BME280;6053;51.382;6.768;2023-06-04T08:28:24;101763.56;;;23.41;33.48
11987;BME280;6053;51.382;6.768;2023-06-04T08:30:52;101771.47;;;23.73;30.35
11987;BME280;6053;51.382;6.768;2023-06-04T08:33:22;101761.00;;;23.44;30.30
11987;BME280;6053;51.382;6.768;2023-06-04T08:35:51;101759.59;;;23.42;31.31
11987;BME280;6053;51.382;6.768;2023-06-04T08:38:19;101765.34;;;23.61;31.57
11987;BME280;6053;51.382;6.768;2023-06-04T08:40:52;101764.16;;;24.01;30.04
11987;BME280;6053;51.382;6.768;2023-06-04T08:43:21;101763.16;;;23.52;29.37
11987;BME280;6053;51.382;6.768;2023-06-04T08:45:50;101757.78;;;23.22;29.82
11987;BME280;6053;51.382;6.768;2023-06-04T08:48:30;101759.59;;;23.08;30.02
11987;BME280;6053;51.382;6.768;2023-06-04T08:51:01;101763.72;;;23.55;28.65
11987;BME280;6053;51.382;6.768;2023-06-04T08:53:31;101769.34;;;23.55;29.50
11987;BME280;6053;51.382;6.768;2023-06-04T08:56:00;101762.50;;;23.32;31.82
11987;BME280;6053;51.382;6.768;2023-06-04T08:58:31;101765.00;;;23.67;28.56
11987;BME280;6053;51.382;6.768;2023-06-04T09:01:01;101772.84;;;24.05;28.64
11987;BME280;6053;51.382;6.768;2023-06-04T09:03:31;101774.06;;;23.64;27.92
11987;BME280;6053;51.382;6.768;2023-06-04T09:06:00;101777.22;;;22.69;30.12
11987;BME280;6053;51.382;6.768;2023-06-04T09:08:34;101774.94;;;23.60;30.35
11987;BME280;6053;51.382;6.768;2023-06-04T09:11:07;101776.38;;;24.15;28.14
11987;BME280;6053;51.382;6.768;2023-06-04T09:13:36;101767.59;;;23.93;30.49
11987;BME280;6053;51.382;6.768;2023-06-04T09:16:07;101768.66;;;23.73;30.15
11987;BME280;6053;51.382;6.768;2023-06-04T09:18:37;101765.66;;;23.59;28.14
11987;BME280;6053;51.382;6.768;2023-06-04T09:21:07;101772.31;;;24.51;28.08
11987;BME280;6053;51.382;6.768;2023-06-04T09:23:43;101773.59;;;23.18;26.98
11987;BME280;6053;51.382;6.768;2023-06-04T09:26:12;101771.66;;;22.58;28.80
11987;BME280;6053;51.382;6.768;2023-06-04T09:28:42;101781.88;;;22.99;29.59
11987;BME280;6053;51.382;6.768;2023-06-04T09:31:13;101767.56;;;23.35;27.79
11987;BME280;6053;51.382;6.768;2023-06-04T09:33:48;101771.22;;;24.22;25.82
11987;BME280;6053;51.382;6.768;2023-06-04T09:36:17;101776.84;;;23.69;26.50
11987;BME280;6053;51.382;6.768;2023-06-04T09:38:46;101773.78;;;23.32;29.05
11987;BME280;6053;51.382;6.768;2023-06-04T09:41:17;101774.41;;;22.69;28.77
11987;BME280;6053;51.382;6.768;2023-06-04T09:43:47;101768.50;;;24.41;27.10
11987;BME280;6053;51.382;6.768;2023-06-04T09:46:17;101777.31;;;24.78;28.94
11987;BME280;6053;51.382;6.768;2023-06-04T09:48:47;101760.19;;;24.50;24.43
11987;BME280;6053;51.382;6.768;2023-06-04T09:51:16;101760.09;;;23.83;25.91
11987;BME280;6053;51.382;6.768;2023-06-04T09:53:54;101770.72;;;23.91;26.72
11987;BME280;6053;51.382;6.768;2023-06-04T09:56:23;101763.25;;;23.03;27.48
11987;BME280;6053;51.382;6.768;2023-06-04T09:58:55;101768.59;;;24.55;26.60
11987;BME280;6053;51.382;6.768;2023-06-04T10:01:26;101765.56;;;24.70;27.31
11987;BME280;6053;51.382;6.768;2023-06-04T10:04:02;101762.97;;;24.31;26.20
11987;BME280;6053;51.382;6.768;2023-06-04T10:06:34;101763.28;;;24.73;25.62
11987;BME280;6053;51.382;6.768;2023-06-04T10:09:05;101763.09;;;24.64;27.35
11987;BME280;6053;51.382;6.768;2023-06-04T10:11:37;101771.78;;;24.25;27.70
11987;BME280;6053;51.382;6.768;2023-06-04T10:14:10;101764.59;;;24.80;28.00
11987;BME280;6053;51.382;6.768;2023-06-04T10:16:43;101758.66;;;24.34;25.70
11987;BME280;6053;51.382;6.768;2023-06-04T10:19:13;101773.44;;;23.72;28.08
11987;BME280;6053;51.382;6.768;2023-06-04T10:21:43;101776.41;;;22.63;29.04
11987;BME280;6053;51.382;6.768;2023-06-04T10:24:13;101765.97;;;23.18;29.93
11987;BME280;6053;51.382;6.768;2023-06-04T10:26:43;101762.38;;;24.58;30.33
11987;BME280;6053;51.382;6.768;2023-06-04T10:29:13;101767.59;;;25.27;28.54
11987;BME280;6053;51.382;6.768;2023-06-04T10:31:43;101762.22;;;24.20;25.50
11987;BME280;6053;51.382;6.768;2023-06-04T10:34:13;101761.53;;;23.46;27.33
11987;BME280;6053;51.382;6.768;2023-06-04T10:36:45;101756.63;;;24.63;29.64
11987;BME280;6053;51.382;6.768;2023-06-04T10:39:14;101747.28;;;25.25;27.37
11987;BME280;6053;51.382;6.768;2023-06-04T10:41:58;101754.66;;;23.92;26.64
11987;BME280;6053;51.382;6.768;2023-06-04T10:44:27;101751.16;;;23.76;28.22
11987;BME280;6053;51.382;6.768;2023-06-04T10:46:57;101752.28;;;24.71;27.11
11987;BME280;6053;51.382;6.768;2023-06-04T10:49:29;101743.38;;;25.39;28.90
11987;BME280;6053;51.382;6.768;2023-06-04T10:52:09;101742.41;;;25.11;27.78
11987;BME280;6053;51.382;6.768;2023-06-04T10:54:38;101743.97;;;23.89;26.79
11987;BME280;6053;51.382;6.768;2023-06-04T10:57:11;101743.44;;;24.11;26.26
11987;BME280;6053;51.382;6.768;2023-06-04T10:59:40;101743.38;;;24.83;26.01
11987;BME280;6053;51.382;6.768;2023-06-04T11:02:09;101745.91;;;24.65;27.54
11987;BME280;6053;51.382;6.768;2023-06-04T11:04:39;101740.13;;;25.13;25.27
11987;BME280;6053;51.382;6.768;2023-06-04T11:07:09;101745.59;;;24.86;27.14
11987;BME280;6053;51.382;6.768;2023-06-04T11:09:48;101753.81;;;24.63;26.00
11987;BME280;6053;51.382;6.768;2023-06-04T11:12:17;101742.25;;;24.41;25.74
11987;BME280;6053;51.382;6.768;2023-06-04T11:14:54;101744.53;;;23.27;24.73
11987;BME280;6053;51.382;6.768;2023-06-04T11:17:23;101740.13;;;24.28;26.17
11987;BME280;6053;51.382;6.768;2023-06-04T11:19:53;101738.53;;;24.45;25.07
11987;BME280;6053;51.382;6.768;2023-06-04T11:22:23;101730.72;;;24.99;24.67
11987;BME280;6053;51.382;6.768;2023-06-04T11:24:56;101722.34;;;24.75;25.78
11987;BME280;6053;51.382;6.768;2023-06-04T11:27:26;101725.59;;;25.01;26.55
11987;BME280;6053;51.382;6.768;2023-06-04T11:30:04;101722.25;;;25.18;25.01
11987;BME280;6053;51.382;6.768;2023-06-04T11:32:35;101724.25;;;24.99;25.55
11987;BME280;6053;51.382;6.768;2023-06-04T11:35:06;101722.72;;;24.02;24.68
11987;BME280;6053;51.382;6.768;2023-06-04T11:37:35;101726.59;;;23.82;24.17
11987;BME280;6053;51.382;6.768;2023-06-04T11:40:14;101720.47;;;23.40;25.24
11987;BME280;6053;51.382;6.768;2023-06-04T11:42:43;101728.34;;;24.02;26.17
11987;BME280;6053;51.382;6.768;2023-06-04T11:45:13;101725.31;;;23.64;26.10
11987;BME280;6053;51.382;6.768;2023-06-04T11:47:45;101724.69;;;24.01;25.90
11987;BME280;6053;51.382;6.768;2023-06-04T11:50:16;101716.88;;;24.41;25.18
11987;BME280;6053;51.382;6.768;2023-06-04T11:52:45;101726.13;;;24.84;27.74
11987;BME280;6053;51.382;6.768;2023-06-04T11:55:14;101725.38;;;24.36;25.80
11987;BME280;6053;51.382;6.768;2023-06-04T11:57:44;101717.69;;;24.17;26.21
11987;BME280;6053;51.382;6.768;2023-06-04T12:00:15;101720.47;;;24.22;25.42
11987;BME280;6053;51.382;6.768;2023-06-04T12:02:52;101713.22;;;24.40;26.11
11987;BME280;6053;51.382;6.768;2023-06-04T12:05:28;101710.47;;;24.11;27.20
11987;BME280;6053;51.382;6.768;2023-06-04T12:08:05;101705.78;;;24.68;25.92
11987;BME280;6053;51.382;6.768;2023-06-04T12:14:22;101706.50;;;24.12;26.03
11987;BME280;6053;51.382;6.768;2023-06-04T12:16:56;101708.06;;;23.99;25.62
11987;BME280;6053;51.382;6.768;2023-06-04T12:19:26;101707.00;;;24.62;25.59
11987;BME280;6053;51.382;6.768;2023-06-04T12:22:05;101710.81;;;24.29;25.01
11987;BME280;6053;51.382;6.768;2023-06-04T12:24:34;101703.44;;;24.76;22.97
11987;BME280;6053;51.382;6.768;2023-06-04T12:27:14;101700.06;;;24.31;28.24
11987;BME280;6053;51.382;6.768;2023-06-04T12:29:47;101699.28;;;23.77;25.64
11987;BME280;6053;51.382;6.768;2023-06-04T12:32:22;101707.50;;;23.73;24.15
11987;BME280;6053;51.382;6.768;2023-06-04T12:34:51;101698.34;;;24.35;23.88
11987;BME280;6053;51.382;6.768;2023-06-04T12:37:21;101696.63;;;24.96;25.95
11987;BME280;6053;51.382;6.768;2023-06-04T12:39:52;101685.88;;;24.60;25.06
11987;BME280;6053;51.382;6.768;2023-06-04T12:42:22;101698.25;;;24.40;25.67
11987;BME280;6053;51.382;6.768;2023-06-04T12:44:51;101689.47;;;24.65;24.33
11987;BME280;6053;51.382;6.768;2023-06-04T12:47:20;101686.91;;;23.44;26.23
11987;BME280;6053;51.382;6.768;2023-06-04T12:49:48;101690.78;;;24.06;26.26
11987;BME280;6053;51.382;6.768;2023-06-04T12:52:17;101687.19;;;24.25;25.50
11987;BME280;6053;51.382;6.768;2023-06-04T12:54:48;101681.69;;;24.95;27.28
11987;BME280;6053;51.382;6.768;2023-06-04T12:57:17;101688.53;;;24.89;24.90
11987;BME280;6053;51.382;6.768;2023-06-04T12:59:45;101688.09;;;24.63;27.46
11987;BME280;6053;51.382;6.768;2023-06-04T13:02:14;101686.31;;;24.67;25.19
11987;BME280;6053;51.382;6.768;2023-06-04T13:04:43;101685.66;;;24.75;24.51
11987;BME280;6053;51.382;6.768;2023-06-04T13:07:13;101685.56;;;24.42;25.51
11987;BME280;6053;51.382;6.768;2023-06-04T13:09:42;101692.34;;;24.60;23.63
11987;BME280;6053;51.382;6.768;2023-06-04T13:12:12;101686.84;;;24.88;24.54
11987;BME280;6053;51.382;6.768;2023-06-04T13:14:40;101690.53;;;24.69;26.46
11987;BME280;6053;51.382;6.768;2023-06-04T13:17:09;101690.72;;;24.35;24.65
11987;BME280;6053;51.382;6.768;2023-06-04T13:19:49;101687.50;;;24.85;25.57
11987;BME280;6053;51.382;6.768;2023-06-04T13:22:17;101690.97;;;23.62;26.88